Nearby METAR Reports

 

KAUS - Austin, Texas, USA
Distance from station: WNW 16mi, 26km
Updated: Thu, 16-Aug-2018 11:53am CDT
Partly cloudy
Partly cloudy
 Wind from S
Wind: S 12 mph , 19 km/h, Gust: 24 mph , 39 km/h
Temperature: 93°F , 34°C
Heat Index: 100°F , 38°C
Dew Point: 72°F , 22°C
Humidity: 49%
Barometer: 30.06 inHg , 1017.9 hPa
Clouds: Partly cloudy
Visibility: 10 miles , 16 km
Cloud details: Partly cloudy 4000 ft
Partly cloudy 20000 ft
2018/08/16 16:53 KAUS 161653Z 19010G21KT 10SM SCT040 SCT200 34/22 A3006 RMK AO2 SLP165 T03440222
KEDC - Austin Exec, Texas, USA
Distance from station: NNW 21mi, 34km
Updated: Thu, 16-Aug-2018 12:15pm CDT
Partly cloudy
Partly cloudy
 Wind from SSW
Wind: SSW 12 mph , 19 km/h
Temperature: 91°F , 33°C
Heat Index: 98°F , 37°C
Dew Point: 72°F , 22°C
Humidity: 52%
Barometer: 30.07 inHg , 1018.3 hPa
Clouds: Partly cloudy
Visibility: 10 miles , 16 km
Cloud details: Partly cloudy 4100 ft
2018/08/16 17:15 KEDC 161715Z AUTO 20010KT 160V220 10SM SCT041 33/22 A3007 RMK AO2
 
KATT - Austin/Mabry, Texas, USA
Distance from station: NW 25mi, 39km
Updated: Thu, 16-Aug-2018 11:51am CDT
Few Clouds
Few Clouds
 Wind from S
Wind: S 9 mph , 15 km/h
Temperature: 93°F , 34°C
Heat Index: 99°F , 37°C
Dew Point: 70°F , 21°C
Humidity: 47%
Barometer: 30.08 inHg , 1018.6 hPa
Clouds: Few Clouds
Visibility: 10 miles , 16 km
Cloud details: Few Clouds 3900 ft
2018/08/16 16:51 KATT 161651Z AUTO 17008KT 10SM FEW039 34/21 A3008 RMK AO2 SLP167 T03440206
KGYB - Giddings-Lee, Texas, USA
Distance from station: E 27mi, 43km
Updated: Thu, 16-Aug-2018 12:15pm CDT
Partly cloudy
Partly cloudy
 Wind from SW
Wind: SW 12 mph , 19 km/h
Temperature: 90°F , 32°C
Heat Index: 97°F , 36°C
Dew Point: 72°F , 22°C
Humidity: 55%
Barometer: 30.07 inHg , 1018.3 hPa
Clouds: Partly cloudy
Visibility: 10 miles , 16 km
Cloud details: Partly cloudy 3800 ft
Partly cloudy 4500 ft
Partly cloudy 5500 ft
2018/08/16 17:15 KGYB 161715Z AUTO 23010KT 10SM SCT038 SCT045 SCT055 32/22 A3007 RMK AO2 T03170215
 
KHYI - San Marcos, Texas, USA
Distance from station: WSW 31mi, 49km
Updated: Thu, 16-Aug-2018 11:56am CDT
Partly cloudy
Partly cloudy
 Wind from S
Wind: S 12 mph , 19 km/h, Gust: 21 mph , 33 km/h
Temperature: 91°F , 33°C
Heat Index: 98°F , 37°C
Dew Point: 72°F , 22°C
Humidity: 52%
Barometer: 30.07 inHg , 1018.3 hPa
Clouds: Partly cloudy
Visibility: 10 miles , 16 km
Cloud details: Partly cloudy 4100 ft
Partly cloudy 4800 ft
2018/08/16 16:56 KHYI 161656Z 19010G18KT 10SM SCT041 SCT048 33/22 A3007 RMK AO2 SLP172 T03330222 $
K3T5 - La Grange, Texas, USA
Distance from station: ESE 32mi, 52km
Updated: Thu, 16-Aug-2018 12:15pm CDT
Partly cloudy
Partly cloudy
 Wind from S
Wind: S 8 mph , 13 km/h
Temperature: 95°F , 35°C
Heat Index: 107°F , 42°C
Dew Point: 75°F , 24°C
Humidity: 53%
Barometer: 30.04 inHg , 1017.3 hPa
Clouds: Partly cloudy
Visibility: 10 miles , 16 km
Cloud details: Partly cloudy 4500 ft
Partly cloudy 6000 ft
Partly cloudy 7000 ft
2018/08/16 17:15 K3T5 161715Z AUTO 17007KT 150V220 10SM SCT045 SCT060 SCT070 35/24 A3004 RMK AO2 T03470235
 
KT20 - Gonzales Muni, Texas, USA
Distance from station: S 41mi, 67km
Updated: Thu, 16-Aug-2018 12:15pm CDT
Partly cloudy
Partly cloudy
 Wind from S
Wind: S 8 mph , 13 km/h
Temperature: 93°F , 34°C
Heat Index: 105°F , 41°C
Dew Point: 75°F , 24°C
Humidity: 56%
Barometer: 30.06 inHg , 1017.9 hPa
Clouds: Partly cloudy
Visibility: 10 miles , 16 km
Cloud details: Partly cloudy 3900 ft
2018/08/16 17:15 KT20 161715Z AUTO 17007KT 10SM SCT039 34/24 A3006 RMK AO2 T03410236
KRYW - Lago Vista, Texas, USA
Distance from station: NW 42mi, 67km
Updated: Thu, 16-Aug-2018 12:15pm CDT
Partly cloudy
Partly cloudy
 Wind from SSE
Wind: SSE 7 mph , 11 km/h
Temperature: 91°F , 33°C
Heat Index: 96°F , 36°C
Dew Point: 70°F , 21°C
Humidity: 49%
Barometer: 30.09 inHg , 1019 hPa
Clouds: Partly cloudy
Visibility: 10 miles , 16 km
Cloud details: Partly cloudy 4200 ft
2018/08/16 17:15 KRYW 161715Z AUTO 15006KT 120V190 10SM SCT042 33/21 A3009 RMK AO2 T03300205
 
KGTU - Georgetown, Texas, USA
Distance from station: NNW 42mi, 68km
Updated: Thu, 16-Aug-2018 11:56am CDT
Few Clouds
Few Clouds
 Wind from S
Wind: S 14 mph , 22 km/h
Temperature: 91°F , 33°C
Heat Index: 98°F , 37°C
Dew Point: 72°F , 22°C
Humidity: 52%
Barometer: 30.08 inHg , 1018.6 hPa
Clouds: Few Clouds
Visibility: 10 miles , 16 km
Cloud details: Few Clouds 4000 ft
2018/08/16 16:56 KGTU 161656Z 19012KT 10SM FEW040 33/22 A3008 RMK AO2 SLP176 T03280217
KBAZ - New Braunfels, Texas, USA
Distance from station: SW 46mi, 74km
Updated: Thu, 16-Aug-2018 11:51am CDT
Mostly cloudy
Mostly cloudy
 Wind from S
Wind: S 13 mph , 20 km/h, Gust: 18 mph , 30 km/h
Temperature: 91°F , 33°C
Heat Index: 98°F , 37°C
Dew Point: 72°F , 22°C
Humidity: 52%
Barometer: 30.06 inHg , 1017.9 hPa
Clouds: Mostly cloudy
Visibility: 10 miles , 16 km
Cloud details: Mostly cloudy 3700 ft
2018/08/16 16:51 KBAZ 161651Z 17011G16KT 10SM BKN037 33/22 A3006 RMK AO2 SLP167 T03330217